Time;durP1;ratioP1;P1;durP2;ratioP2;P2;SDS_P1;SDS_P2;PMS_P1;PMS_P2;Temp;Humidity;BMP_temperature;BMP_pressure;BME280_temperature;BME280_humidity;BME280_pressure;Samples;Min_cycle;Max_cycle;Signal;HPM_P1;HPM_P2
2023/11/29 00:00:07;;;;;;;79.38;32.22;;;-4.20;99.90;;;;;;5074398;28;20036;-74
2023/11/29 00:02:33;;;;;;;64.65;28.95;;;-4.20;99.90;;;;;;5074574;28;20028;-74
2023/11/29 00:04:59;;;;;;;66.68;30.02;;;-4.30;99.90;;;;;;5073864;28;20028;-74
2023/11/29 00:07:24;;;;;;;105.72;42.55;;;-4.30;99.90;;;;;;5073061;28;20542;-74
2023/11/29 00:09:50;;;;;;;86.20;35.60;;;-4.30;99.90;;;;;;5074121;28;20470;-74
2023/11/29 00:12:16;;;;;;;69.68;29.88;;;-4.30;99.90;;;;;;5074252;28;20028;-74
2023/11/29 00:14:42;;;;;;;65.80;27.27;;;-4.40;99.90;;;;;;5073043;28;20383;-73
2023/11/29 00:17:08;;;;;;;63.20;28.38;;;-4.40;99.90;;;;;;5072976;28;20445;-74
2023/11/29 00:19:33;;;;;;;66.38;28.15;;;-4.40;99.90;;;;;;5073982;28;20047;-74
2023/11/29 00:21:59;;;;;;;72.25;28.45;;;-4.40;99.90;;;;;;5074223;28;20099;-74
2023/11/29 00:24:24;;;;;;;58.35;27.05;;;-4.40;99.90;;;;;;5072627;28;20071;-77
2023/11/29 00:26:50;;;;;;;96.05;37.53;;;-4.40;99.90;;;;;;5074160;28;20526;-74
2023/11/29 00:29:16;;;;;;;80.45;33.72;;;-4.40;99.90;;;;;;5073669;28;20416;-74
2023/11/29 00:31:41;;;;;;;65.63;28.08;;;-4.50;99.90;;;;;;5072410;28;20147;-74
2023/11/29 00:34:07;;;;;;;83.72;34.58;;;-4.50;99.90;;;;;;5073690;28;20105;-78
2023/11/29 00:36:33;;;;;;;71.22;28.23;;;-4.50;99.90;;;;;;5073938;28;20032;-78
2023/11/29 00:38:58;;;;;;;70.95;29.20;;;-4.50;99.90;;;;;;5073863;28;20027;-75
2023/11/29 00:41:24;;;;;;;69.68;28.88;;;-4.50;99.90;;;;;;5072488;28;20024;-77
2023/11/29 00:43:50;;;;;;;76.57;30.23;;;-4.50;99.90;;;;;;5073534;28;20374;-74
2023/11/29 00:46:16;;;;;;;85.72;38.10;;;-4.50;99.90;;;;;;5073657;28;20784;-77
2023/11/29 00:48:41;;;;;;;60.17;26.27;;;-4.50;99.90;;;;;;5072519;28;20102;-73
2023/11/29 00:51:07;;;;;;;68.63;29.23;;;-4.50;99.90;;;;;;5072295;28;20394;-74
2023/11/29 00:53:33;;;;;;;62.75;27.67;;;-4.50;99.90;;;;;;5072140;28;20371;-74
2023/11/29 00:55:58;;;;;;;76.82;33.83;;;-4.50;99.90;;;;;;5072248;28;20062;-74
2023/11/29 00:58:25;;;;;;;145.73;68.50;;;-4.50;99.90;;;;;;5072010;28;20043;-74
2023/11/29 01:00:51;;;;;;;133.50;59.45;;;-4.50;99.90;;;;;;5072181;28;20540;-74
2023/11/29 01:03:17;;;;;;;179.18;79.55;;;-4.50;99.90;;;;;;5072897;28;20020;-78
2023/11/29 01:05:43;;;;;;;97.85;44.55;;;-4.50;99.90;;;;;;5072047;28;20027;-78
2023/11/29 01:08:08;;;;;;;94.63;43.97;;;-4.50;99.90;;;;;;5071554;28;20131;-77
2023/11/29 01:10:35;;;;;;;85.85;36.92;;;-4.60;99.90;;;;;;5073321;28;20029;-74
2023/11/29 01:13:01;;;;;;;64.10;29.48;;;-4.60;99.90;;;;;;5071777;28;20591;-78
2023/11/29 01:15:26;;;;;;;98.28;46.65;;;-4.70;99.90;;;;;;5073283;28;20020;-78
2023/11/29 01:17:52;;;;;;;67.70;30.75;;;-4.70;99.90;;;;;;5072808;28;20055;-77
2023/11/29 01:20:18;;;;;;;59.47;26.05;;;-4.70;99.90;;;;;;5072952;28;20032;-78
2023/11/29 01:22:44;;;;;;;67.85;30.77;;;-4.80;99.90;;;;;;5071659;28;20377;-77
2023/11/29 01:25:10;;;;;;;95.45;40.92;;;-4.80;99.90;;;;;;5073079;28;20583;-77
2023/11/29 01:27:35;;;;;;;70.38;31.33;;;-4.80;99.90;;;;;;5072874;28;20024;-77
2023/11/29 01:30:03;;;;;;;101.65;44.15;;;-4.80;99.90;;;;;;5071670;28;20062;-74
2023/11/29 01:32:28;;;;;;;79.70;32.50;;;-4.90;99.90;;;;;;5072582;28;20036;-78
2023/11/29 01:34:54;;;;;;;78.28;30.80;;;-4.90;99.90;;;;;;5073019;28;20024;-74
2023/11/29 01:37:20;;;;;;;62.22;28.95;;;-4.90;99.90;;;;;;5071228;28;20024;-74
2023/11/29 01:39:47;;;;;;;70.95;30.02;;;-4.90;99.90;;;;;;5071583;28;20115;-74
2023/11/29 01:42:12;;;;;;;80.53;32.90;;;-4.90;99.90;;;;;;5071344;28;20046;-77
2023/11/29 01:44:38;;;;;;;139.98;59.45;;;-5.00;99.90;;;;;;5071057;28;20016;-77
2023/11/29 01:47:13;;;;;;;73.05;33.53;;;-5.00;99.90;;;;;;5072619;28;20021;-77
2023/11/29 01:49:40;;;;;;;69.93;32.90;;;-5.00;99.90;;;;;;5071604;28;20474;-78
2023/11/29 01:52:07;;;;;;;76.38;32.92;;;-5.00;99.90;;;;;;5071194;28;20023;-74
2023/11/29 01:54:33;;;;;;;84.15;33.65;;;-5.00;99.90;;;;;;5072841;28;20021;-74
2023/11/29 01:56:58;;;;;;;74.13;35.72;;;-5.00;99.90;;;;;;5071030;28;20012;-74
2023/11/29 01:59:24;;;;;;;85.75;35.30;;;-5.00;99.90;;;;;;5072394;28;20060;-77
2023/11/29 02:01:50;;;;;;;70.43;33.47;;;-5.00;99.90;;;;;;5072485;28;20535;-77
2023/11/29 02:04:16;;;;;;;93.43;39.33;;;-5.00;99.90;;;;;;5072705;28;20028;-78
2023/11/29 02:06:42;;;;;;;83.10;36.63;;;-5.00;99.90;;;;;;5072386;28;20112;-74
2023/11/29 02:09:08;;;;;;;77.57;32.40;;;-5.00;99.90;;;;;;5071209;28;20090;-74
2023/11/29 02:11:39;;;;;;;74.07;31.23;;;-5.00;99.90;;;;;;5072354;28;20478;-74
2023/11/29 02:14:06;;;;;;;75.18;30.85;;;-5.00;99.90;;;;;;5071320;28;20063;-74
2023/11/29 02:16:31;;;;;;;70.25;30.88;;;-5.00;99.90;;;;;;5070865;28;20129;-74
2023/11/29 02:18:57;;;;;;;71.60;35.10;;;-5.10;99.90;;;;;;5071310;28;20487;-77
2023/11/29 02:21:24;;;;;;;65.10;27.67;;;-5.10;99.90;;;;;;5071795;28;20027;-78
2023/11/29 02:24:04;;;;;;;70.03;32.95;;;-5.10;99.90;;;;;;5072601;28;20037;-78
2023/11/29 02:26:30;;;;;;;75.45;30.30;;;-5.10;99.90;;;;;;5058743;28;20021;-74
2023/11/29 02:28:56;;;;;;;70.93;33.85;;;-5.20;99.90;;;;;;5072561;28;20374;-78
2023/11/29 02:31:21;;;;;;;61.13;28.88;;;-5.20;99.90;;;;;;5071818;28;20025;-74
2023/11/29 02:33:47;;;;;;;68.18;30.33;;;-5.30;99.90;;;;;;5071032;28;20024;-74
2023/11/29 02:36:13;;;;;;;66.80;27.45;;;-5.40;99.90;;;;;;5058727;28;20029;-74
2023/11/29 02:38:38;;;;;;;69.32;30.52;;;-5.40;99.90;;;;;;5070568;28;20016;-74
2023/11/29 02:41:05;;;;;;;72.50;33.67;;;-5.40;99.90;;;;;;5071919;28;20037;-74
2023/11/29 02:43:30;;;;;;;64.82;27.05;;;-5.40;99.90;;;;;;5072083;28;20496;-77
2023/11/29 02:45:56;;;;;;;63.78;27.48;;;-5.40;99.90;;;;;;5071944;28;20091;-78
2023/11/29 02:48:21;;;;;;;66.65;28.20;;;-5.40;99.90;;;;;;5070738;28;20054;-74
2023/11/29 02:50:47;;;;;;;74.55;29.63;;;-5.40;99.90;;;;;;5072166;28;20359;-74
2023/11/29 02:53:13;;;;;;;67.68;31.27;;;-5.40;99.90;;;;;;5071741;28;20070;-78
2023/11/29 02:55:38;;;;;;;65.35;28.13;;;-5.50;99.90;;;;;;5073445;28;20406;-74
2023/11/29 02:58:04;;;;;;;65.03;28.13;;;-5.50;99.90;;;;;;5074554;28;20119;-74
2023/11/29 03:00:30;;;;;;;58.25;25.77;;;-5.40;99.90;;;;;;5074694;28;20550;-74
2023/11/29 03:02:57;;;;;;;61.42;28.75;;;-5.50;99.90;;;;;;5074248;28;20020;-77
2023/11/29 03:05:24;;;;;;;70.20;27.42;;;-5.50;99.90;;;;;;5075705;28;20017;-74
2023/11/29 03:07:50;;;;;;;67.53;29.55;;;-5.50;99.90;;;;;;5074345;28;20032;-78
2023/11/29 03:10:16;;;;;;;64.95;27.45;;;-5.50;99.90;;;;;;5075654;28;20020;-78
2023/11/29 03:12:41;;;;;;;71.25;30.08;;;-5.60;99.90;;;;;;5073157;28;20099;-78
2023/11/29 03:15:09;;;;;;;64.10;27.10;;;-5.60;99.90;;;;;;5074291;28;20032;-77
2023/11/29 03:17:35;;;;;;;70.00;26.60;;;-5.60;99.90;;;;;;5075811;28;20051;-77
2023/11/29 03:20:01;;;;;;;68.78;26.92;;;-5.60;99.90;;;;;;5075089;28;20474;-73
2023/11/29 03:22:26;;;;;;;62.75;27.33;;;-5.60;99.90;;;;;;5074016;28;20472;-77
2023/11/29 03:24:52;;;;;;;54.53;25.15;;;-5.60;99.90;;;;;;5073892;28;20112;-77
2023/11/29 03:27:21;;;;;;;69.07;28.08;;;-5.60;99.90;;;;;;5075223;28;20103;-77
2023/11/29 03:29:46;;;;;;;62.03;25.45;;;-5.60;99.90;;;;;;5074996;28;20021;-74
2023/11/29 03:32:12;;;;;;;71.00;27.63;;;-5.60;99.90;;;;;;5073834;28;20120;-73
2023/11/29 03:34:38;;;;;;;69.07;28.67;;;-5.70;99.90;;;;;;5073659;28;20549;-73
2023/11/29 03:37:04;;;;;;;63.22;24.40;;;-5.70;99.90;;;;;;5075107;28;20016;-78
2023/11/29 03:39:29;;;;;;;72.97;27.80;;;-5.70;99.90;;;;;;5074742;28;20039;-77
2023/11/29 03:41:55;;;;;;;59.85;26.15;;;-5.70;99.90;;;;;;5075122;28;20474;-78
2023/11/29 03:44:21;;;;;;;70.80;29.80;;;-5.70;99.90;;;;;;5074774;28;20058;-77
2023/11/29 03:46:46;;;;;;;59.83;26.88;;;-5.80;99.90;;;;;;5074658;28;20023;-77
2023/11/29 03:49:12;;;;;;;65.47;26.80;;;-5.70;99.90;;;;;;5073632;28;20478;-78
2023/11/29 03:51:38;;;;;;;67.45;28.35;;;-5.80;99.90;;;;;;5074730;28;20025;-74
2023/11/29 03:54:04;;;;;;;65.85;28.35;;;-5.70;99.90;;;;;;5073271;28;20016;-78
2023/11/29 03:56:30;;;;;;;71.15;26.95;;;-5.70;99.90;;;;;;5074396;28;20378;-74
2023/11/29 03:58:55;;;;;;;71.70;27.75;;;-5.70;99.90;;;;;;5074820;28;20028;-78
2023/11/29 04:01:21;;;;;;;63.88;25.80;;;-5.70;99.90;;;;;;5074277;28;20039;-78
2023/11/29 04:03:47;;;;;;;72.15;28.85;;;-5.80;99.90;;;;;;5073607;28;20016;-74
2023/11/29 04:06:23;;;;;;;64.55;25.92;;;-5.70;99.90;;;;;;5073193;28;20090;-77
2023/11/29 04:08:49;;;;;;;64.45;27.55;;;-5.80;99.90;;;;;;5074066;28;20027;-74
2023/11/29 04:11:15;;;;;;;64.18;26.33;;;-5.80;99.90;;;;;;5073029;28;20394;-74
2023/11/29 04:13:40;;;;;;;71.30;28.92;;;-5.80;99.90;;;;;;5067225;28;20401;-77
2023/11/29 04:16:06;;;;;;;71.50;27.08;;;-5.80;99.90;;;;;;5074320;28;20017;-77
2023/11/29 04:18:32;;;;;;;64.40;26.35;;;-5.80;99.90;;;;;;5074449;28;20031;-77
2023/11/29 04:21:00;;;;;;;77.50;31.13;;;-5.80;99.90;;;;;;5074164;28;20032;-74
2023/11/29 04:23:35;;;;;;;65.65;28.30;;;-5.80;99.90;;;;;;5074034;28;20017;-76
2023/11/29 04:26:00;;;;;;;58.67;26.80;;;-5.80;99.90;;;;;;5074046;28;20386;-73
2023/11/29 04:28:26;;;;;;;57.22;23.52;;;-5.90;99.90;;;;;;5074133;28;20021;-77
2023/11/29 04:30:52;;;;;;;66.53;28.67;;;-5.90;99.90;;;;;;5072738;28;20028;-78
2023/11/29 04:33:17;;;;;;;66.05;26.15;;;-5.80;99.90;;;;;;5074003;28;20049;-77
2023/11/29 04:35:43;;;;;;;56.65;25.50;;;-5.90;99.90;;;;;;5073976;28;20012;-74
2023/11/29 04:38:15;;;;;;;54.67;24.48;;;-5.90;99.90;;;;;;5072608;28;20428;-74
2023/11/29 04:40:40;;;;;;;63.27;25.57;;;-5.90;99.90;;;;;;5073647;28;20045;-74
2023/11/29 04:43:06;;;;;;;66.35;26.10;;;-6.00;99.90;;;;;;5073722;28;20382;-78
2023/11/29 04:45:32;;;;;;;60.83;23.77;;;-6.00;99.90;;;;;;5072412;28;20021;-73
2023/11/29 04:47:57;;;;;;;56.42;23.30;;;-6.00;99.90;;;;;;5072064;28;20025;-77
2023/11/29 04:50:23;;;;;;;59.30;23.92;;;-6.10;99.90;;;;;;5072430;28;20020;-77
2023/11/29 04:52:49;;;;;;;49.83;22.25;;;-6.10;99.90;;;;;;5072209;28;20078;-77
2023/11/29 04:55:15;;;;;;;58.85;25.08;;;-6.20;99.90;;;;;;5072394;28;20066;-78
2023/11/29 04:57:40;;;;;;;63.85;25.55;;;-6.20;99.90;;;;;;5072959;28;21330;-74
2023/11/29 05:00:07;;;;;;;58.78;26.08;;;-6.10;99.90;;;;;;5073501;28;20044;-77
2023/11/29 05:02:32;;;;;;;54.92;23.75;;;-6.00;99.90;;;;;;5073210;28;20074;-77
2023/11/29 05:04:58;;;;;;;57.58;24.35;;;-6.10;99.90;;;;;;5073582;28;20021;-74
2023/11/29 05:07:23;;;;;;;59.78;23.30;;;-6.10;99.90;;;;;;5073050;28;20028;-78
2023/11/29 05:09:49;;;;;;;61.55;25.80;;;-6.10;99.90;;;;;;5072144;28;20024;-74
2023/11/29 05:12:15;;;;;;;69.57;25.23;;;-6.10;99.90;;;;;;5054424;28;20025;-74
2023/11/29 05:14:40;;;;;;;69.43;26.33;;;-6.20;99.90;;;;;;5072156;28;20033;-74
2023/11/29 05:17:06;;;;;;;56.97;26.77;;;-6.20;99.90;;;;;;5071702;28;20473;-74
2023/11/29 05:19:31;;;;;;;62.20;26.33;;;-6.10;99.90;;;;;;5073017;28;20055;-77
2023/11/29 05:21:57;;;;;;;61.22;24.50;;;-6.10;99.90;;;;;;5071709;28;20486;-76
2023/11/29 05:24:23;;;;;;;55.17;22.50;;;-6.20;99.90;;;;;;5071894;28;20055;-77
2023/11/29 05:26:48;;;;;;;71.38;25.88;;;-6.20;99.90;;;;;;5072624;28;20032;-74
2023/11/29 05:29:14;;;;;;;64.40;24.90;;;-6.20;99.90;;;;;;5072854;28;20021;-76
2023/11/29 05:31:40;;;;;;;60.75;24.25;;;-6.30;99.90;;;;;;5071151;28;20461;-76
2023/11/29 05:34:06;;;;;;;64.05;23.70;;;-6.20;99.90;;;;;;5071656;28;20063;-80
2023/11/29 05:36:31;;;;;;;73.05;26.15;;;-6.20;99.90;;;;;;5072530;28;20123;-77
2023/11/29 05:38:57;;;;;;;69.57;25.17;;;-6.20;99.90;;;;;;5072446;28;20023;-77
2023/11/29 05:41:23;;;;;;;67.20;26.25;;;-6.20;99.90;;;;;;5072430;28;20036;-75
2023/11/29 05:43:48;;;;;;;57.30;26.77;;;-6.20;99.90;;;;;;5071767;28;20066;-79
2023/11/29 05:46:14;;;;;;;67.78;23.15;;;-6.20;99.90;;;;;;5074786;28;20048;-75
2023/11/29 05:48:39;;;;;;;64.07;24.92;;;-6.30;99.90;;;;;;5072681;28;20028;-75
2023/11/29 05:51:05;;;;;;;63.20;23.52;;;-6.30;99.90;;;;;;5071279;28;20020;-79
2023/11/29 05:53:31;;;;;;;61.22;23.90;;;-6.30;99.90;;;;;;5071486;28;20025;-75
2023/11/29 05:55:56;;;;;;;67.32;25.08;;;-6.30;99.90;;;;;;5072344;28;20131;-75
2023/11/29 05:58:22;;;;;;;63.08;23.88;;;-6.30;99.90;;;;;;5071360;28;20024;-79
2023/11/29 06:00:48;;;;;;;59.25;24.33;;;-6.30;99.90;;;;;;5072177;28;20032;-79
2023/11/29 06:03:14;;;;;;;60.65;26.40;;;-6.30;99.90;;;;;;5072469;28;20023;-78
2023/11/29 06:05:39;;;;;;;60.30;23.20;;;-6.20;99.90;;;;;;5071342;28;20024;-78
2023/11/29 06:08:05;;;;;;;62.50;24.40;;;-6.20;99.90;;;;;;5071326;28;20386;-75
2023/11/29 06:10:31;;;;;;;59.63;23.15;;;-6.20;99.90;;;;;;5072171;28;20024;-78
2023/11/29 06:12:57;;;;;;;57.38;23.90;;;-6.30;99.90;;;;;;5066468;28;20025;-79
2023/11/29 06:15:22;;;;;;;68.55;25.25;;;-6.20;99.90;;;;;;5070087;28;20024;-79
2023/11/29 06:17:48;;;;;;;62.95;23.40;;;-6.20;99.90;;;;;;5072216;28;20417;-80
2023/11/29 06:20:18;;;;;;;72.28;26.15;;;-6.20;99.90;;;;;;5071011;28;20029;-79
2023/11/29 06:22:43;;;;;;;66.15;24.35;;;-6.20;99.90;;;;;;5072320;28;20107;-80
2023/11/29 06:25:09;;;;;;;68.28;25.23;;;-6.20;99.90;;;;;;5072283;28;20477;-75
2023/11/29 06:27:35;;;;;;;66.90;23.55;;;-6.20;99.90;;;;;;5067195;28;20032;-76
2023/11/29 06:30:03;;;;;;;81.55;29.88;;;-6.10;99.90;;;;;;5066942;28;20135;-75
2023/11/29 06:32:29;;;;;;;199.43;60.70;;;-6.20;99.90;;;;;;5063239;28;20537;-75
2023/11/29 06:34:56;;;;;;;70.38;27.65;;;-6.10;99.90;;;;;;5071367;28;20056;-75
2023/11/29 06:37:22;;;;;;;65.03;23.80;;;-6.10;99.90;;;;;;5060350;28;20139;-75
2023/11/29 06:39:48;;;;;;;63.45;24.77;;;-6.10;99.90;;;;;;5062949;28;20619;-75
2023/11/29 06:42:14;;;;;;;65.40;24.58;;;-6.10;99.90;;;;;;5069634;28;20025;-75
2023/11/29 06:44:40;;;;;;;70.68;26.58;;;-6.10;99.90;;;;;;5071215;28;20470;-79
2023/11/29 06:47:06;;;;;;;71.50;27.83;;;-6.10;99.90;;;;;;5082558;28;20042;-80
2023/11/29 06:49:31;;;;;;;71.22;27.83;;;-6.10;99.90;;;;;;5081051;28;20071;-79
2023/11/29 06:51:57;;;;;;;65.97;25.15;;;-6.10;99.90;;;;;;5078232;28;20494;-80
2023/11/29 06:54:23;;;;;;;70.55;28.42;;;-6.00;99.90;;;;;;5076863;28;20456;-79
2023/11/29 06:56:49;;;;;;;69.95;24.58;;;-6.00;99.90;;;;;;5080810;28;20026;-80
2023/11/29 06:59:15;;;;;;;73.53;26.95;;;-6.10;99.90;;;;;;5072200;28;20105;-80
2023/11/29 07:01:41;;;;;;;60.05;27.17;;;-6.10;99.90;;;;;;5072360;28;20029;-80
2023/11/29 07:04:07;;;;;;;62.13;24.50;;;-6.10;99.90;;;;;;5074308;28;20028;-80
2023/11/29 07:06:32;;;;;;;64.40;24.52;;;-6.10;99.90;;;;;;5073546;28;20031;-80
2023/11/29 07:08:58;;;;;;;73.55;27.23;;;-6.00;99.90;;;;;;5071996;28;20529;-75
2023/11/29 07:11:23;;;;;;;68.97;29.63;;;-6.00;99.90;;;;;;5072538;28;20028;-76
2023/11/29 07:13:49;;;;;;;74.78;28.33;;;-6.00;99.90;;;;;;5070557;28;20074;-80
2023/11/29 07:16:15;;;;;;;67.78;27.42;;;-5.90;99.90;;;;;;5071650;28;20074;-80
2023/11/29 07:18:41;;;;;;;67.97;25.73;;;-5.90;99.90;;;;;;5070784;28;20021;-75
2023/11/29 07:21:07;;;;;;;69.30;24.65;;;-6.00;99.90;;;;;;5061297;28;20087;-80
2023/11/29 07:23:32;;;;;;;74.43;29.25;;;-5.90;99.90;;;;;;5063893;28;20724;-80
2023/11/29 07:25:58;;;;;;;69.63;25.67;;;-5.90;99.90;;;;;;5071704;28;20044;-76
2023/11/29 07:28:26;;;;;;;70.25;28.33;;;-5.90;99.90;;;;;;5073783;28;20565;-75
2023/11/29 07:30:51;;;;;;;72.60;27.05;;;-5.90;99.90;;;;;;5086584;28;20060;-76
2023/11/29 07:33:17;;;;;;;73.38;28.70;;;-5.80;99.90;;;;;;5087486;28;20073;-80
2023/11/29 07:35:43;;;;;;;122.60;49.92;;;-5.70;99.90;;;;;;5073402;28;20056;-80
2023/11/29 07:38:08;;;;;;;272.98;98.28;;;-5.70;99.90;;;;;;5074776;28;20025;-80
2023/11/29 07:40:34;;;;;;;201.95;67.30;;;-5.60;99.90;;;;;;5074634;28;20032;-75
2023/11/29 07:42:59;;;;;;;116.65;43.72;;;-5.50;99.90;;;;;;5072278;28;20027;-80
2023/11/29 07:45:25;;;;;;;199.23;72.57;;;-5.40;99.90;;;;;;5074575;28;20486;-75
2023/11/29 07:47:52;;;;;;;458.42;180.55;;;-5.50;99.90;;;;;;5073517;28;20017;-80
2023/11/29 07:50:18;;;;;;;420.02;154.65;;;-5.40;99.90;;;;;;5075025;28;20024;-75
2023/11/29 07:52:43;;;;;;;571.22;230.85;;;-5.50;99.90;;;;;;5074614;28;20035;-80
2023/11/29 07:55:10;;;;;;;124.40;47.00;;;-5.40;99.90;;;;;;5073289;28;20028;-80
2023/11/29 07:57:35;;;;;;;545.22;215.93;;;-5.40;99.90;;;;;;5074355;28;20020;-80
2023/11/29 08:00:03;;;;;;;156.05;53.22;;;-5.30;99.90;;;;;;5073990;28;20097;-75
2023/11/29 08:02:29;;;;;;;615.25;241.10;;;-5.30;99.90;;;;;;5074863;28;20059;-80
2023/11/29 08:04:55;;;;;;;501.20;181.35;;;-5.30;99.90;;;;;;5074315;28;20048;-80
2023/11/29 08:07:20;;;;;;;177.30;56.28;;;-5.20;99.90;;;;;;5072684;28;20029;-80
2023/11/29 08:09:47;;;;;;;125.93;47.13;;;-5.20;99.90;;;;;;5072851;28;20081;-75
2023/11/29 08:12:14;;;;;;;373.30;118.72;;;-5.20;99.90;;;;;;5060418;28;20501;-80
2023/11/29 08:14:40;;;;;;;461.45;156.38;;;-5.20;99.90;;;;;;5074343;28;20017;-80
2023/11/29 08:17:06;;;;;;;151.75;49.33;;;-5.10;99.90;;;;;;5072512;28;20025;-80
2023/11/29 08:19:31;;;;;;;174.80;54.97;;;-5.20;99.90;;;;;;5074089;28;20071;-75
2023/11/29 08:22:00;;;;;;;226.65;77.95;;;-5.10;99.90;;;;;;5072482;28;20032;-80
2023/11/29 08:24:26;;;;;;;164.75;61.22;;;-5.00;99.90;;;;;;5074050;28;20032;-80
2023/11/29 08:26:52;;;;;;;137.18;45.25;;;-4.90;99.90;;;;;;5073690;28;20036;-80
2023/11/29 08:29:18;;;;;;;89.45;33.42;;;-4.90;99.90;;;;;;5073968;28;20093;-75
2023/11/29 08:31:43;;;;;;;113.88;38.88;;;-4.90;99.90;;;;;;5071809;28;20127;-75
2023/11/29 08:34:09;;;;;;;97.85;38.47;;;-4.80;99.90;;;;;;5073914;28;20019;-75
2023/11/29 08:36:34;;;;;;;122.32;48.50;;;-4.70;99.90;;;;;;5072256;28;20078;-80
2023/11/29 08:39:00;;;;;;;99.40;38.35;;;-4.70;99.90;;;;;;5073884;28;20040;-80
2023/11/29 08:41:25;;;;;;;81.85;31.27;;;-4.60;99.90;;;;;;5073169;28;20043;-80
2023/11/29 08:43:51;;;;;;;90.32;35.25;;;-4.60;99.90;;;;;;5072330;28;20056;-80
2023/11/29 08:46:17;;;;;;;83.63;31.10;;;-4.50;99.90;;;;;;5072821;28;20028;-80
2023/11/29 08:48:43;;;;;;;73.85;30.33;;;-4.40;99.90;;;;;;5073665;28;20101;-80
2023/11/29 08:51:09;;;;;;;77.15;35.38;;;-4.30;99.90;;;;;;5072156;28;20120;-80
2023/11/29 08:53:35;;;;;;;72.10;31.38;;;-4.20;99.90;;;;;;5072024;28;20056;-75
2023/11/29 08:56:01;;;;;;;76.30;30.70;;;-4.20;99.90;;;;;;5073439;28;20017;-80
2023/11/29 08:58:27;;;;;;;73.95;30.38;;;-4.20;99.90;;;;;;5073552;28;20028;-76
2023/11/29 09:00:53;;;;;;;73.43;31.30;;;-4.20;99.90;;;;;;5073216;28;20539;-75
2023/11/29 09:03:18;;;;;;;69.63;30.10;;;-4.40;99.90;;;;;;5071815;28;20074;-75
2023/11/29 09:05:44;;;;;;;75.65;31.10;;;-4.20;99.90;;;;;;5072067;28;20577;-80
2023/11/29 09:08:09;;;;;;;93.15;40.80;;;-4.20;99.90;;;;;;5073351;28;20025;-80
2023/11/29 09:10:38;;;;;;;77.78;33.00;;;-4.00;99.90;;;;;;5077892;28;20025;-80
2023/11/29 09:13:05;;;;;;;61.97;27.50;;;-4.10;99.90;;;;;;5074753;28;20042;-76
2023/11/29 09:15:33;;;;;;;70.18;29.63;;;-4.10;99.90;;;;;;5071936;28;20033;-75
2023/11/29 09:17:59;;;;;;;72.97;32.45;;;-4.10;99.90;;;;;;5072082;28;20487;-75
2023/11/29 09:20:25;;;;;;;66.78;24.65;;;-4.10;99.90;;;;;;5072820;28;20020;-80
2023/11/29 09:22:51;;;;;;;54.55;24.35;;;-4.10;99.90;;;;;;5069527;28;20082;-75
2023/11/29 09:25:17;;;;;;;71.22;29.17;;;-4.10;99.90;;;;;;5072908;28;20512;-80
2023/11/29 09:27:43;;;;;;;77.65;33.72;;;-4.00;99.90;;;;;;5071842;28;20020;-75
2023/11/29 09:30:10;;;;;;;70.15;28.80;;;-4.10;99.90;;;;;;5071480;28;20032;-80
2023/11/29 09:32:35;;;;;;;66.13;26.63;;;-4.20;99.90;;;;;;5062972;28;20405;-76
2023/11/29 09:35:04;;;;;;;64.13;27.08;;;-4.30;99.90;;;;;;5072790;28;20204;-75
2023/11/29 09:37:30;;;;;;;68.82;27.75;;;-4.30;99.90;;;;;;5072990;28;20505;-76
2023/11/29 09:39:56;;;;;;;72.68;28.25;;;-4.20;99.90;;;;;;5072603;28;20082;-80
2023/11/29 09:42:24;;;;;;;55.28;23.70;;;-4.30;99.90;;;;;;5071544;28;20437;-80
2023/11/29 09:44:53;;;;;;;62.53;28.50;;;-4.30;99.90;;;;;;5072515;28;20048;-80
2023/11/29 09:47:23;;;;;;;64.40;29.23;;;-4.10;99.90;;;;;;5072802;28;20048;-75
2023/11/29 09:49:50;;;;;;;54.53;24.50;;;-4.00;99.90;;;;;;5071343;28;20095;-80
2023/11/29 09:52:17;;;;;;;61.13;25.33;;;-3.90;99.90;;;;;;5072649;28;20039;-75
2023/11/29 09:54:43;;;;;;;63.78;27.95;;;-3.80;99.90;;;;;;5071005;28;20016;-75
2023/11/29 09:57:09;;;;;;;57.25;22.65;;;-3.80;99.90;;;;;;5071468;28;20020;-76
2023/11/29 09:59:34;;;;;;;53.17;23.40;;;-3.70;99.90;;;;;;5072394;28;20016;-80
2023/11/29 10:02:05;;;;;;;49.08;21.30;;;-3.70;99.90;;;;;;5072648;28;20036;-80
2023/11/29 10:04:35;;;;;;;48.97;22.23;;;-3.80;99.90;;;;;;5071957;28;20038;-75
2023/11/29 10:07:01;;;;;;;55.17;21.85;;;-3.70;99.90;;;;;;5072532;28;20394;-80
2023/11/29 10:09:27;;;;;;;50.78;22.40;;;-3.90;99.90;;;;;;5072038;28;20478;-76
2023/11/29 10:11:53;;;;;;;49.75;21.92;;;-3.90;99.90;;;;;;5071535;28;20108;-80
2023/11/29 10:14:20;;;;;;;97.05;42.90;;;-3.80;99.90;;;;;;5072418;28;20047;-77
2023/11/29 10:16:52;;;;;;;64.53;31.38;;;-3.70;99.90;;;;;;5072354;28;20031;-75
2023/11/29 10:19:18;;;;;;;66.55;33.38;;;-3.70;99.90;;;;;;5072369;28;20050;-76
2023/11/29 10:21:47;;;;;;;51.00;22.58;;;-3.60;99.90;;;;;;5070844;28;20016;-80
2023/11/29 10:24:26;;;;;;;47.03;24.13;;;-3.60;99.90;;;;;;5072349;28;20108;-75
2023/11/29 10:26:52;;;;;;;44.28;21.00;;;-3.60;99.90;;;;;;5072270;28;20032;-80
2023/11/29 10:29:18;;;;;;;42.38;21.38;;;-3.70;99.90;;;;;;5072356;28;20021;-80
2023/11/29 10:31:46;;;;;;;46.25;19.25;;;-3.80;99.90;;;;;;5071957;28;20106;-80
2023/11/29 10:34:14;;;;;;;44.92;20.02;;;-3.70;99.90;;;;;;5072222;28;20016;-76
2023/11/29 10:36:41;;;;;;;38.33;18.55;;;-3.60;99.90;;;;;;5072013;28;20074;-80
2023/11/29 10:39:16;;;;;;;45.53;19.02;;;-3.60;99.90;;;;;;5072289;28;20020;-80
2023/11/29 10:41:55;;;;;;;38.17;17.63;;;-3.70;99.90;;;;;;5070897;28;20097;-80
2023/11/29 10:44:38;;;;;;;42.60;20.60;;;-3.70;99.90;;;;;;5071008;28;20025;-80
2023/11/29 10:47:06;;;;;;;49.25;22.73;;;-3.70;99.90;;;;;;5060701;28;20017;-75
2023/11/29 10:49:53;;;;;;;41.22;19.83;;;-3.60;99.90;;;;;;5070627;28;20054;-80
2023/11/29 10:52:19;;;;;;;41.20;21.40;;;-3.50;99.90;;;;;;5072158;28;20024;-76
2023/11/29 10:54:49;;;;;;;43.60;20.52;;;-3.50;99.90;;;;;;5070678;28;20024;-80
2023/11/29 10:57:31;;;;;;;46.08;20.05;;;-3.40;99.90;;;;;;5071919;28;20020;-75
2023/11/29 11:00:13;;;;;;;38.20;19.27;;;-3.40;99.90;;;;;;5062155;28;20121;-80
2023/11/29 11:02:46;;;;;;;48.80;21.90;;;-3.30;99.90;;;;;;5071940;28;20019;-75
2023/11/29 11:05:15;;;;;;;48.55;20.00;;;-3.40;99.90;;;;;;5070712;28;20029;-80
2023/11/29 11:07:42;;;;;;;42.90;20.25;;;-3.40;99.90;;;;;;5073110;28;20013;-76
2023/11/29 11:10:20;;;;;;;54.22;21.38;;;-3.40;99.90;;;;;;5072188;28;20024;-76
2023/11/29 11:12:46;;;;;;;41.70;18.83;;;-3.30;99.90;;;;;;5069486;28;20474;-80
2023/11/29 11:15:19;;;;;;;41.22;19.35;;;-3.20;99.90;;;;;;5071832;28;20036;-80
2023/11/29 11:18:05;;;;;;;35.15;18.52;;;-3.10;99.90;;;;;;5073398;28;20150;-75
2023/11/29 11:20:40;;;;;;;39.03;19.52;;;-3.10;99.90;;;;;;5073881;28;20041;-80
2023/11/29 11:23:06;;;;;;;41.30;19.45;;;-3.00;99.90;;;;;;5074052;28;20426;-80
2023/11/29 11:25:32;;;;;;;42.20;18.13;;;-2.90;99.90;;;;;;5075225;28;20074;-76
2023/11/29 11:27:58;;;;;;;40.78;18.20;;;-3.10;99.90;;;;;;5075296;28;20020;-80
2023/11/29 11:30:28;;;;;;;48.55;21.63;;;-3.10;99.90;;;;;;5073524;28;20474;-80
2023/11/29 11:32:57;;;;;;;50.30;23.42;;;-3.30;99.90;;;;;;5074000;28;20640;-77
2023/11/29 11:35:24;;;;;;;53.15;21.35;;;-3.40;99.90;;;;;;5061065;28;20033;-75
2023/11/29 11:37:59;;;;;;;47.15;19.77;;;-3.50;99.90;;;;;;5072963;28;20034;-75
2023/11/29 11:40:27;;;;;;;51.65;22.65;;;-3.60;99.90;;;;;;5073791;28;20043;-75
2023/11/29 11:42:53;;;;;;;57.83;22.15;;;-3.50;99.90;;;;;;5074916;28;20468;-75
2023/11/29 11:45:21;;;;;;;51.35;22.83;;;-3.50;99.90;;;;;;5075419;28;20383;-76
2023/11/29 11:47:46;;;;;;;50.00;22.48;;;-3.40;99.90;;;;;;5074552;28;20444;-76
2023/11/29 11:50:13;;;;;;;50.70;22.50;;;-3.30;99.90;;;;;;5074575;28;20105;-80
2023/11/29 11:52:39;;;;;;;50.20;20.38;;;-3.10;99.90;;;;;;5074671;28;20020;-75
2023/11/29 11:55:10;;;;;;;40.70;18.40;;;-3.20;99.90;;;;;;5073563;28;20020;-80
2023/11/29 11:57:37;;;;;;;41.65;17.50;;;-3.10;99.90;;;;;;5074723;28;20070;-75
2023/11/29 12:00:07;;;;;;;41.08;18.80;;;-3.10;99.90;;;;;;5073267;28;20027;-75
2023/11/29 12:02:34;;;;;;;38.83;17.55;;;-3.10;99.90;;;;;;5074522;28;20028;-75
2023/11/29 12:05:00;;;;;;;46.88;17.85;;;-3.20;99.90;;;;;;5073176;28;20090;-79
2023/11/29 12:07:27;;;;;;;40.28;17.15;;;-3.20;99.90;;;;;;5074431;28;20013;-80
2023/11/29 12:09:55;;;;;;;37.85;16.67;;;-3.10;99.90;;;;;;5075575;28;20498;-80
2023/11/29 12:12:21;;;;;;;34.50;15.88;;;-3.00;99.90;;;;;;5075003;28;20012;-80
2023/11/29 12:14:51;;;;;;;31.90;16.02;;;-2.80;99.90;;;;;;5073418;28;20029;-80
2023/11/29 12:17:18;;;;;;;72.15;26.90;;;-2.90;99.90;;;;;;5071522;28;20070;-76
2023/11/29 12:19:46;;;;;;;50.00;21.73;;;-3.00;99.90;;;;;;5074221;28;20086;-80
2023/11/29 12:22:13;;;;;;;260.20;89.38;;;-3.20;99.90;;;;;;5073126;28;20386;-75